Aérodrome :







RETROUVEZ-NOUS SUR...

 
LOGIN :

S'inscrire | Disclaimer

   EN    FR    IT 

 









Légende :    VFR   VFR Marginal   IFR   IFR Intensif   IFR Très Intensif
Visi : 
Plafond : 
>= 8 km
>= 3000ft
5 à 8 km
1000 à 3000 ft
1500m à 5 km
500 à 1000 ft
800 à 1500m
200 à 500 ft
< 800m
< 200 ft
Symboles :   Orages  Brouillard  Fortes neiges  Fortes précipitations  Vent > 20 kt







- Altitude de l'aérodrome : 241 ft
- Code IATA : CEF


KCEF - Westover ARB/Metropolitan

DERNIER METAR :
  • 240456Z AUTO 17004KT 10SM CLR 15/15 A2973 RMK AO2 RAE09DZB09E10 SLP073 P0001 T01500145 402150111

METARs EXPIRÉS :
  • 240412Z 19006KT 8SM FEW025 SCT070 OVC085 16/15 A2974 RMK AO2A SLP076
  • 240356Z 17006KT 7SM -RA VCTS FEW006 SCT010 OVC055 16/15 A2974 RMK AO2A RAB12 SLP076 P0035 T01630153
  • 240336Z 35007G20KT 4SM -RA BR VCTS BKN010 BKN048 OVC085 17/15 A2977 RMK AO2A SLP086
  • 240312Z 18010KT 10SM -RA VCTS SCT019 BKN095 OVC180 17/15 A2973 RMK AO2A SLP073
  • 240256Z 20008KT 10SM SCT019 BKN110 16/14 A2975 RMK AO2A LTG DSNT W AND N CB DSNT W-N SLP080 T01640144 57031

TAF AMD TAF KCEF
Valide du 24 à 02h jusqu'au 25 à 08h UTC


240238Z 2402/2508 19012KT 9999 SCT040 OVC075 WS020/25040KT 510207 QNH2970INS
TEMPO 2404/2406 28025G40KT 4800 +TSRAGR BKN025CB OVC065
BECMG 2406/2407 29015G25KT 9999 FEW030 520004 QNH2970INS
TEMPO 2412/2422 31025G35KT BKN045 530006
BECMG 2501/2502 02009KT 9999 FEW045 BKN250 QNH3010INS TX21/2420Z TN13/2410Z LAST NO AMDS AFT 2403 NEXT 2410
FIR KZBW / Amérique du Nord



MET'MAP, la Météo Aéronautique d'un coup d'oeil ! - Copyright ORBIFLY Décembre 2007 - Disclaimer

ORBIFLY MET'MAP TEAM :

Programmation & Développement : Alexandra Zaïnal
Conception & Développement : Baudouin d'Aumeries
Co-Programmation & Développement : Marc-Olivier Méhu
Soutien technique & logistique : Manuel Goepfert

Contact : metmap@orbifly.com




SOURCES & CREDITS :

   NOAA